createdAt,value
2023-01-13T00:01:43.086Z,9.80
2023-01-13T00:04:12.060Z,9.90
2023-01-13T00:06:40.955Z,13.70
2023-01-13T00:09:09.720Z,9.80
2023-01-13T00:11:38.464Z,9.10
2023-01-13T00:14:07.231Z,11.30
2023-01-13T00:16:36.009Z,8.60
2023-01-13T00:19:04.807Z,13.80
2023-01-13T00:21:33.659Z,12.50
2023-01-13T00:24:02.461Z,12.30
2023-01-13T00:26:33.860Z,10.90
2023-01-13T00:29:04.147Z,12.50
2023-01-13T00:31:32.994Z,12.90
2023-01-13T00:34:02.246Z,10.30
2023-01-13T00:36:32.209Z,10.70
2023-01-13T00:39:00.773Z,10.40
2023-01-13T00:41:49.329Z,12.10
2023-01-13T00:44:18.204Z,11.50
2023-01-13T00:46:46.854Z,11.60
2023-01-13T00:49:15.524Z,8.60
2023-01-13T00:51:44.415Z,13.30
2023-01-13T00:54:13.134Z,12.10
2023-01-13T00:56:41.660Z,11.50
2023-01-13T00:59:14.410Z,9.70
2023-01-13T01:01:43.311Z,9.00
2023-01-13T01:04:12.346Z,7.70
2023-01-13T01:06:41.205Z,9.70
2023-01-13T01:09:14.728Z,9.60
2023-01-13T01:11:44.045Z,13.90
2023-01-13T01:14:14.428Z,5.80
2023-01-13T01:16:43.036Z,5.30
2023-01-13T01:19:11.718Z,3.80
2023-01-13T01:21:40.551Z,10.30
2023-01-13T01:24:10.085Z,6.00
2023-01-13T01:26:38.758Z,8.80
2023-01-13T01:29:07.621Z,7.00
2023-01-13T01:31:36.319Z,4.80
2023-01-13T01:34:05.163Z,8.10
2023-01-13T01:36:35.233Z,6.30
2023-01-13T01:39:04.971Z,11.10
2023-01-13T01:41:36.205Z,7.40
2023-01-13T01:44:58.723Z,5.00
2023-01-13T01:47:29.884Z,8.20
2023-01-13T01:49:58.924Z,8.90
2023-01-13T01:52:36.839Z,6.60
2023-01-13T01:55:16.982Z,6.50
2023-01-13T01:58:13.460Z,7.80
2023-01-13T02:00:42.488Z,5.30
2023-01-13T02:03:11.468Z,9.50
2023-01-13T02:05:40.146Z,9.20
2023-01-13T02:08:11.914Z,8.70
2023-01-13T02:10:43.288Z,9.40
2023-01-13T02:13:14.168Z,9.10
2023-01-13T02:16:13.403Z,4.60
2023-01-13T02:19:43.211Z,9.80
2023-01-13T02:22:27.959Z,5.50
2023-01-13T02:25:55.833Z,8.40
2023-01-13T02:29:32.777Z,9.10
2023-01-13T02:32:22.395Z,10.20
2023-01-13T02:35:15.336Z,12.70
2023-01-13T02:40:25.394Z,9.20
2023-01-13T02:43:26.362Z,8.30
2023-01-13T02:46:24.590Z,11.30
2023-01-13T02:48:57.671Z,9.40
2023-01-13T02:51:30.279Z,8.90
2023-01-13T02:56:39.666Z,7.90
2023-01-13T02:59:10.704Z,10.70
2023-01-13T03:01:40.079Z,10.20
2023-01-13T03:04:14.792Z,12.00
2023-01-13T03:06:57.043Z,13.40
2023-01-13T03:09:43.313Z,12.10
2023-01-13T03:12:23.984Z,8.80
2023-01-13T03:15:09.802Z,4.70
2023-01-13T03:18:21.693Z,11.00
2023-01-13T03:21:06.853Z,9.50
2023-01-13T03:23:54.114Z,10.70
2023-01-13T03:26:53.114Z,11.00
2023-01-13T03:30:07.759Z,7.30
2023-01-13T03:32:42.515Z,6.70
2023-01-13T03:35:30.971Z,9.10
2023-01-13T03:38:20.821Z,10.30
2023-01-13T03:40:56.095Z,3.90
2023-01-13T03:43:50.584Z,7.30
2023-01-13T03:46:28.337Z,5.00
2023-01-13T03:48:59.971Z,5.90
2023-01-13T03:51:34.930Z,10.10
2023-01-13T03:54:10.715Z,7.20
2023-01-13T03:56:45.967Z,4.30
2023-01-13T03:59:24.382Z,5.50
2023-01-13T04:02:27.770Z,10.60
2023-01-13T04:05:03.261Z,12.00
2023-01-13T04:07:42.997Z,7.70
2023-01-13T04:10:14.298Z,9.40
2023-01-13T04:13:01.135Z,6.60
2023-01-13T04:15:35.523Z,8.50
2023-01-13T04:18:27.400Z,6.70
2023-01-13T04:20:59.769Z,3.60
2023-01-13T04:23:29.401Z,8.00
2023-01-13T04:25:59.025Z,9.80
2023-01-13T04:28:29.999Z,9.00
2023-01-13T04:30:58.822Z,8.40
2023-01-13T04:33:27.534Z,7.90
2023-01-13T04:35:56.463Z,7.00
2023-01-13T04:38:25.205Z,10.00
2023-01-13T04:40:53.993Z,8.70
2023-01-13T04:43:22.702Z,8.20
2023-01-13T04:45:51.713Z,10.00
2023-01-13T04:48:20.680Z,7.00
2023-01-13T04:50:49.518Z,10.20
2023-01-13T04:53:18.349Z,9.50
2023-01-13T04:55:48.276Z,9.20
2023-01-13T04:58:17.240Z,9.40
2023-01-13T05:00:46.014Z,8.50
2023-01-13T05:03:15.584Z,7.10
2023-01-13T05:05:45.235Z,4.60
2023-01-13T05:08:14.023Z,8.10
2023-01-13T05:10:44.512Z,8.70
2023-01-13T05:13:33.438Z,7.20
2023-01-13T05:16:43.647Z,11.10
2023-01-13T05:19:16.621Z,10.50
2023-01-13T05:22:04.432Z,7.20
2023-01-13T05:24:52.050Z,10.00
2023-01-13T05:27:20.953Z,4.90
2023-01-13T05:29:49.924Z,5.50
2023-01-13T05:32:19.575Z,7.90
2023-01-13T05:34:48.963Z,10.70
2023-01-13T05:37:20.851Z,8.90
2023-01-13T05:40:08.518Z,9.30
2023-01-13T05:42:56.826Z,9.00
2023-01-13T05:45:26.450Z,8.70
2023-01-13T05:47:55.631Z,8.80
2023-01-13T05:50:25.478Z,7.40
2023-01-13T05:52:54.527Z,7.10
2023-01-13T05:55:23.430Z,5.50
2023-01-13T05:57:52.690Z,9.70
2023-01-13T06:00:22.215Z,8.60
2023-01-13T06:02:51.381Z,9.00
2023-01-13T06:05:21.143Z,6.10
2023-01-13T06:07:51.493Z,9.70
2023-01-13T06:10:20.808Z,8.60
2023-01-13T06:12:50.173Z,8.80
2023-01-13T06:15:19.893Z,10.80
2023-01-13T06:17:49.020Z,4.70
2023-01-13T06:20:19.460Z,12.60
2023-01-13T06:22:52.254Z,11.10
2023-01-13T06:26:02.585Z,12.00
2023-01-13T06:28:35.820Z,10.20
2023-01-13T06:34:41.396Z,10.30
2023-01-13T06:37:15.283Z,13.40
2023-01-13T06:39:44.279Z,11.90
2023-01-13T06:42:32.047Z,17.70
2023-01-13T06:45:01.228Z,16.60
2023-01-13T06:47:30.370Z,20.00
2023-01-13T06:50:00.236Z,24.90
2023-01-13T06:52:30.913Z,23.80
2023-01-13T06:54:59.877Z,20.70
2023-01-13T06:57:29.062Z,23.70
2023-01-13T06:59:59.205Z,17.80
2023-01-13T07:02:28.575Z,19.00
2023-01-13T07:04:57.861Z,16.30
2023-01-13T07:07:27.699Z,9.50
2023-01-13T07:09:56.713Z,12.50
2023-01-13T07:12:26.152Z,15.80
2023-01-13T07:15:14.994Z,16.90
2023-01-13T07:17:43.856Z,15.80
2023-01-13T07:20:12.983Z,13.50
2023-01-13T07:22:41.846Z,15.80
2023-01-13T07:25:11.647Z,5.70
2023-01-13T07:27:40.624Z,13.50
2023-01-13T07:30:11.757Z,9.30
2023-01-13T07:32:40.605Z,12.30
2023-01-13T07:35:09.799Z,12.40
2023-01-13T07:37:39.598Z,11.40
2023-01-13T07:40:11.181Z,12.30
2023-01-13T07:45:27.848Z,7.10
2023-01-13T07:47:56.499Z,10.80
2023-01-13T07:50:25.344Z,9.60
2023-01-13T07:52:58.630Z,7.30
2023-01-13T07:55:27.605Z,9.40
2023-01-13T07:57:56.518Z,14.10
2023-01-13T08:00:25.292Z,11.20
2023-01-13T08:02:54.117Z,9.50
2023-01-13T08:05:22.845Z,15.70
2023-01-13T08:11:11.456Z,10.00
2023-01-13T08:13:40.368Z,14.50
2023-01-13T08:16:14.036Z,13.60
2023-01-13T08:18:43.619Z,11.20
2023-01-13T08:21:15.180Z,14.80
2023-01-13T08:23:45.454Z,10.50
2023-01-13T08:26:18.016Z,9.40
2023-01-13T08:28:46.920Z,15.00
2023-01-13T08:31:17.179Z,7.20
2023-01-13T08:33:47.317Z,11.80
2023-01-13T08:36:16.400Z,11.10
2023-01-13T08:38:45.116Z,7.40
2023-01-13T08:41:40.433Z,15.70
2023-01-13T08:44:09.532Z,13.80
2023-01-13T08:46:38.539Z,15.70
2023-01-13T08:49:07.527Z,10.30
2023-01-13T08:51:36.771Z,11.90
2023-01-13T08:54:05.702Z,12.50
2023-01-13T09:00:07.835Z,16.20
2023-01-13T09:02:38.648Z,9.30
2023-01-13T09:05:08.735Z,12.70
2023-01-13T09:07:39.093Z,14.80
2023-01-13T09:10:10.059Z,16.50
2023-01-13T09:16:12.988Z,11.60
2023-01-13T09:18:41.818Z,13.30
2023-01-13T09:21:11.773Z,11.60
2023-01-13T09:23:40.413Z,12.10
2023-01-13T09:26:10.371Z,12.30
2023-01-13T09:28:39.172Z,13.40
2023-01-13T09:31:08.358Z,14.00
2023-01-13T09:33:55.877Z,6.70
2023-01-13T09:36:24.863Z,11.10
2023-01-13T09:38:53.684Z,13.00
2023-01-13T09:41:48.523Z,12.20
2023-01-13T09:44:28.200Z,15.20
2023-01-13T09:47:04.512Z,12.80
2023-01-13T09:49:42.390Z,12.00
2023-01-13T09:52:15.866Z,12.40
2023-01-13T09:55:14.746Z,13.90
2023-01-13T09:57:45.614Z,14.90
2023-01-13T10:00:29.333Z,11.70
2023-01-13T10:03:28.961Z,12.60
2023-01-13T10:06:22.689Z,13.20
2023-01-13T10:08:51.820Z,10.90
2023-01-13T10:11:45.593Z,14.10
2023-01-13T10:14:41.723Z,11.30
2023-01-13T10:17:49.386Z,12.50
2023-01-13T10:20:33.557Z,13.90
2023-01-13T10:23:27.096Z,12.80
2023-01-13T10:26:24.354Z,11.30
2023-01-13T10:28:58.577Z,12.40
2023-01-13T10:31:27.629Z,10.00
2023-01-13T10:34:02.064Z,12.20
2023-01-13T10:36:31.292Z,11.00
2023-01-13T10:39:17.085Z,11.70
2023-01-13T10:41:45.928Z,12.00
2023-01-13T10:44:20.108Z,10.50
2023-01-13T10:46:56.621Z,10.90
2023-01-13T10:49:39.379Z,7.80
2023-01-13T10:55:38.895Z,7.10
2023-01-13T10:58:17.687Z,9.30
2023-01-13T11:00:47.712Z,14.00
2023-01-13T11:03:19.975Z,9.30
2023-01-13T11:05:58.345Z,12.20
2023-01-13T11:08:42.390Z,9.50
2023-01-13T11:11:47.770Z,12.80
2023-01-13T11:14:40.112Z,11.10
2023-01-13T11:17:46.632Z,11.40
2023-01-13T11:20:31.919Z,11.30
2023-01-13T11:23:16.316Z,10.00
2023-01-13T11:25:53.191Z,9.80
2023-01-13T11:29:00.406Z,12.20
2023-01-13T11:31:40.331Z,12.90
2023-01-13T11:34:26.118Z,14.00
2023-01-13T11:36:58.583Z,10.50
2023-01-13T11:39:54.066Z,13.50
2023-01-13T11:42:32.440Z,13.70
2023-01-13T11:45:32.197Z,11.80
2023-01-13T11:48:03.250Z,13.20
2023-01-13T11:51:14.104Z,12.90
2023-01-13T11:54:33.435Z,12.90
2023-01-13T11:57:56.290Z,10.40
2023-01-13T12:00:31.458Z,12.70
2023-01-13T12:03:25.068Z,12.20
2023-01-13T12:06:27.958Z,11.40
2023-01-13T12:09:25.027Z,11.30
2023-01-13T12:12:37.167Z,10.60
2023-01-13T12:15:21.991Z,11.40
2023-01-13T12:17:50.824Z,12.80
2023-01-13T12:20:42.797Z,9.90
2023-01-13T12:23:59.498Z,12.20
2023-01-13T12:26:35.003Z,11.80
2023-01-13T12:29:11.604Z,11.20
2023-01-13T12:31:43.222Z,9.50
2023-01-13T12:34:47.759Z,11.30
2023-01-13T12:38:15.245Z,11.10
2023-01-13T12:41:06.757Z,11.70
2023-01-13T12:43:57.014Z,10.50
2023-01-13T12:46:25.777Z,10.80
2023-01-13T12:48:56.851Z,11.10
2023-01-13T12:51:36.959Z,11.50
2023-01-13T12:54:30.895Z,12.30
2023-01-13T12:57:00.768Z,10.80
2023-01-13T12:59:29.623Z,12.40
2023-01-13T13:02:16.101Z,14.50
2023-01-13T13:04:52.029Z,11.60
2023-01-13T13:07:41.389Z,12.20
2023-01-13T13:10:28.686Z,10.40
2023-01-13T13:13:18.988Z,10.70
2023-01-13T13:15:52.213Z,10.90
2023-01-13T13:18:28.580Z,11.80
2023-01-13T13:21:07.427Z,12.50
2023-01-13T13:23:57.894Z,11.50
2023-01-13T13:26:46.007Z,11.00
2023-01-13T13:29:59.871Z,5.30
2023-01-13T13:33:02.633Z,7.60
2023-01-13T13:36:36.129Z,8.00
2023-01-13T13:39:47.689Z,9.30
2023-01-13T13:42:47.994Z,10.00
2023-01-13T13:45:40.116Z,11.80
2023-01-13T13:48:27.387Z,10.90
2023-01-13T13:51:02.685Z,10.60
2023-01-13T13:53:41.993Z,11.30
2023-01-13T13:56:32.735Z,11.80
2023-01-13T13:59:01.689Z,10.30
2023-01-13T14:02:04.267Z,11.50
2023-01-13T14:04:38.168Z,12.00
2023-01-13T14:07:22.370Z,10.60
2023-01-13T14:09:54.904Z,8.00
2023-01-13T14:12:27.291Z,12.00
2023-01-13T14:14:57.772Z,10.20
2023-01-13T14:17:29.947Z,12.30
2023-01-13T14:20:05.977Z,15.00
2023-01-13T14:26:01.523Z,14.30
2023-01-13T14:28:38.637Z,10.80
2023-01-13T14:31:10.199Z,8.80
2023-01-13T14:33:48.991Z,12.20
2023-01-13T14:36:41.881Z,15.30
2023-01-13T14:39:15.093Z,16.50
2023-01-13T14:41:43.883Z,32.20
2023-01-13T14:44:36.893Z,21.60
2023-01-13T14:50:04.846Z,17.80
2023-01-13T14:52:52.784Z,16.80
2023-01-13T14:55:38.849Z,14.50
2023-01-13T14:58:23.399Z,14.10
2023-01-13T21:53:56.131Z,9.80
2023-01-13T21:56:25.486Z,7.70
2023-01-13T21:58:56.301Z,8.60
2023-01-13T22:01:25.250Z,8.50
2023-01-13T22:04:13.075Z,8.40
2023-01-13T22:06:41.867Z,8.00
2023-01-13T22:09:10.748Z,6.60
2023-01-13T22:11:39.815Z,6.00
2023-01-13T22:14:10.268Z,6.50
2023-01-13T22:16:49.181Z,8.40
2023-01-13T22:19:18.927Z,7.60
2023-01-13T22:21:47.715Z,7.10
2023-01-13T22:24:16.543Z,8.20
2023-01-13T22:26:45.306Z,7.60
2023-01-13T22:29:14.064Z,7.00
2023-01-13T22:31:43.185Z,6.60
2023-01-13T22:37:50.466Z,7.80
2023-01-13T22:40:19.605Z,7.70
2023-01-13T22:42:48.367Z,8.10
2023-01-13T22:45:17.071Z,7.40
2023-01-13T22:47:45.791Z,6.30
2023-01-13T22:50:14.741Z,8.10
2023-01-13T22:52:43.388Z,7.70
2023-01-13T22:55:12.104Z,7.30
2023-01-13T22:57:47.657Z,6.70
2023-01-13T23:00:19.363Z,8.00
2023-01-13T23:02:48.355Z,7.70
2023-01-13T23:05:17.797Z,7.80
2023-01-13T23:07:46.609Z,8.40
2023-01-13T23:10:15.319Z,8.50
2023-01-13T23:12:44.117Z,6.40
2023-01-13T23:15:13.005Z,6.40
2023-01-13T23:17:41.697Z,7.80
2023-01-13T23:20:11.633Z,6.70
2023-01-13T23:22:41.007Z,6.00
2023-01-13T23:25:11.098Z,7.70
2023-01-13T23:27:39.924Z,8.10
2023-01-13T23:30:11.398Z,7.70
2023-01-13T23:32:40.389Z,8.20
2023-01-13T23:35:11.286Z,9.80
2023-01-13T23:37:40.070Z,9.10
2023-01-13T23:40:10.266Z,9.50
2023-01-13T23:42:39.183Z,6.60
2023-01-13T23:45:10.011Z,9.40
2023-01-13T23:47:39.362Z,10.60
2023-01-13T23:50:09.488Z,7.70
2023-01-13T23:52:40.444Z,8.20
2023-01-13T23:55:09.978Z,5.80
2023-01-13T23:57:40.906Z,8.00
